| time (UTC) | temp F | wind direction | speed knots | gust knots | rain 1hr in | rain 24hr in | rain mn in | humidity % | barometer mb |
| 20260507213150 | 48 | 235 | 3.5 | 8.7 | 0.00 | 0.09 | 0.09 | 93 | 1014.6 |
| 20260507211545 | 48 | 221 | 3.5 | 9.6 | 0.00 | 0.09 | 0.09 | 93 | 1014.6 |
| 20260507210043 | 48 | 247 | 2.6 | 8.7 | 0.00 | 0.09 | 0.09 | 93 | 1014.5 |
| 20260507204543 | 48 | 235 | 4.3 | 8.7 | 0.01 | 0.09 | 0.09 | 93 | 1014.5 |
| 20260507203141 | 48 | 282 | 2.6 | 5.2 | 0.01 | 0.09 | 0.09 | 93 | 1014.4 |
| 20260507201540 | 49 | 282 | 2.6 | 6.1 | 0.02 | 0.09 | 0.09 | 92 | 1014.2 |
| 20260507200046 | 49 | 219 | 3.5 | 6.1 | 0.09 | 0.09 | 0.09 | 92 | 1014.3 |
| 20260507194537 | 50 | 230 | 0.9 | 4.3 | 0.08 | 0.09 | 0.09 | 91 | 1014.1 |
| 20260507193136 | 51 | 332 | 1.7 | 5.2 | 0.08 | 0.09 | 0.09 | 90 | 1014.1 |
| 20260507191542 | 52 | 310 | 2.6 | 6.1 | 0.06 | 0.07 | 0.07 | 88 | 1014.0 |
| 20260507190040 | 52 | 193 | 2.6 | 4.3 | 0.00 | 0.01 | 0.01 | 86 | 1013.8 |
| 20260507184540 | 52 | 213 | 0.0 | 1.7 | 0.00 | 0.01 | 0.01 | 84 | 1013.6 |
| 20260507183139 | 52 | 213 | 0.9 | 4.3 | 0.00 | 0.01 | 0.01 | 84 | 1013.5 |
| 20260507181535 | 51 | 18 | 0.9 | 3.5 | 0.00 | 0.01 | 0.01 | 85 | 1013.3 |
| 20260507180042 | 52 | 308 | 0.9 | 3.5 | 0.00 | 0.01 | 0.01 | 85 | 1013.1 |
| 20260507174536 | 52 | 310 | 0.0 | 0.9 | 0.00 | 0.01 | 0.01 | 85 | 1013.1 |
| 20260507173134 | 52 | 310 | 0.0 | 1.7 | 0.00 | 0.01 | 0.01 | 84 | 1012.9 |
| 20260507171607 | 52 | 311 | 0.9 | 3.5 | 0.00 | 0.01 | 0.01 | 83 | 1013.1 |
| 20260507170055 | 53 | 311 | 1.7 | 3.5 | 0.00 | 0.01 | 0.01 | 81 | 1012.8 |
| 20260507164602 | 54 | 28 | 0.0 | 0.9 | 0.00 | 0.01 | 0.01 | 80 | 1012.9 |
| 20260507163149 | 55 | 57 | 0.0 | 0.9 | 0.00 | 0.01 | 0.01 | 80 | 1012.9 |
| 20260507161547 | 56 | 59 | 0.9 | 1.7 | 0.00 | 0.01 | 0.01 | 76 | 1013.0 |
| 20260507160046 | 57 | 62 | 0.0 | 2.6 | 0.00 | 0.01 | 0.01 | 74 | 1013.0 |
| 20260507154545 | 58 | 61 | 0.9 | 4.3 | 0.00 | 0.01 | 0.01 | 71 | 1012.9 |
| 20260507153144 | 59 | 18 | 0.9 | 4.3 | 0.00 | 0.01 | 0.01 | 69 | 1013.0 |
| 20260507151544 | 60 | 76 | 0.9 | 5.2 | 0.00 | 0.01 | 0.01 | 70 | 1013.0 |
| 20260507150043 | 59 | 39 | 0.0 | 8.7 | 0.00 | 0.01 | 0.01 | 71 | 1013.2 |
| 20260507144640 | 57 | 40 | 0.9 | 7.8 | 0.00 | 0.01 | 0.01 | 70 | 1013.2 |
| 20260507143139 | 58 | 18 | 1.7 | 5.2 | 0.00 | 0.01 | 0.01 | 70 | 1013.3 |
| 20260507141537 | 58 | 92 | 0.0 | 2.6 | 0.00 | 0.01 | 0.01 | 70 | 1013.3 |
| 20260507140036 | 59 | 83 | 0.9 | 3.5 | 0.00 | 0.01 | 0.01 | 70 | 1013.4 |
| 20260507134545 | 60 | 15 | 0.9 | 11.3 | 0.00 | 0.01 | 0.01 | 72 | 1013.5 |
| 20260507133135 | 61 | 51 | 0.0 | 7.0 | 0.00 | 0.01 | 0.01 | 67 | 1013.5 |
| 20260507131609 | 61 | 53 | 2.6 | 9.6 | 0.00 | 0.01 | 0.01 | 69 | 1013.7 |
| 20260507130055 | 61 | 64 | 3.5 | 10.4 | 0.00 | 0.01 | 0.01 | 68 | 1013.8 |
| 20260507124554 | 60 | 74 | 0.9 | 7.8 | 0.00 | 0.01 | 0.01 | 70 | 1013.8 |
| 20260507123150 | 60 | 29 | 1.7 | 6.1 | 0.00 | 0.01 | 0.01 | 68 | 1014.0 |
| 20260507121555 | 59 | 88 | 2.6 | 6.1 | 0.00 | 0.01 | 0.01 | 70 | 1014.1 |
| 20260507120051 | 59 | 78 | 1.7 | 9.6 | 0.00 | 0.01 | 0.01 | 69 | 1014.2 |
| 20260507114547 | 58 | 68 | 0.9 | 7.8 | 0.00 | 0.01 | 0.01 | 75 | 1014.3 |
| 20260507113147 | 58 | 59 | 0.9 | 7.0 | 0.00 | 0.01 | 0.01 | 78 | 1014.5 |
| 20260507111543 | 57 | 55 | 1.7 | 7.8 | 0.00 | 0.01 | 0.01 | 80 | 1014.5 |
| 20260507110055 | 55 | 70 | 1.7 | 7.8 | 0.00 | 0.04 | 0.01 | 84 | 1014.7 |
| 20260507104540 | 55 | 78 | 2.6 | 7.0 | 0.00 | 0.04 | 0.01 | 81 | 1014.9 |
| 20260507103140 | 56 | 68 | 0.9 | 4.3 | 0.00 | 0.04 | 0.01 | 80 | 1015.0 |
| 20260507101546 | 56 | 38 | 0.9 | 4.3 | 0.00 | 0.04 | 0.01 | 82 | 1015.1 |
| 20260507100041 | 55 | 29 | 0.9 | 5.2 | 0.00 | 0.06 | 0.01 | 82 | 1015.1 |
| 20260507094538 | 56 | 58 | 0.9 | 5.2 | 0.00 | 0.06 | 0.01 | 83 | 1015.0 |
| 20260507093136 | 56 | 50 | 1.7 | 4.3 | 0.00 | 0.06 | 0.01 | 84 | 1015.0 |
| 20260507091559 | 55 | 32 | 0.9 | 3.5 | 0.00 | 0.06 | 0.01 | 85 | 1014.9 |
| 20260507090042 | 55 | 72 | 0.9 | 4.3 | 0.00 | 0.08 | 0.01 | 86 | 1015.0 |
| 20260507084539 | 54 | 65 | 1.7 | 4.3 | 0.00 | 0.08 | 0.01 | 89 | 1014.8 |
| 20260507083131 | 53 | 65 | 0.9 | 3.5 | 0.00 | 0.08 | 0.01 | 88 | 1014.8 |
| 20260507081556 | 52 | 103 | 0.9 | 4.3 | 0.00 | 0.08 | 0.01 | 89 | 1014.8 |
| 20260507080054 | 52 | 61 | 0.9 | 3.5 | 0.00 | 0.08 | 0.01 | 91 | 1014.8 |
| 20260507074550 | 51 | 84 | 0.0 | 3.5 | 0.00 | 0.08 | 0.01 | 90 | 1014.6 |
| 20260507073147 | 50 | 96 | 0.9 | 3.5 | 0.00 | 0.08 | 0.01 | 90 | 1014.7 |
| 20260507071557 | 48 | 126 | 1.7 | 5.2 | 0.00 | 0.08 | 0.01 | 93 | 1014.6 |
| 20260507070100 | 48 | 130 | 1.7 | 4.3 | 0.00 | 0.10 | 0.01 | 93 | 1014.6 |
| 20260507064546 | 46 | 161 | 2.6 | 4.3 | 0.00 | 0.10 | 0.01 | 94 | 1014.7 |
| 20260507063144 | 45 | 192 | 2.6 | 5.2 | 0.00 | 0.10 | 0.01 | 95 | 1014.7 |
| 20260507061551 | 45 | 198 | 4.3 | 7.0 | 0.00 | 0.10 | 0.01 | 95 | 1014.5 |
| 20260507054547 | 43 | 157 | 5.2 | 8.7 | 0.00 | 0.17 | 0.01 | 96 | 1014.5 |
| 20260507053137 | 43 | 171 | 5.2 | 9.6 | 0.00 | 0.17 | 0.01 | 96 | 1014.4 |
| 20260507051543 | 42 | 180 | 3.5 | 7.0 | 0.00 | 0.17 | 0.01 | 96 | 1014.4 |
| 20260507050042 | 42 | 199 | 3.5 | 8.7 | 0.00 | 0.26 | 0.01 | 96 | 1014.3 |
| 20260507044534 | 42 | 209 | 2.6 | 7.0 | 0.00 | 0.26 | 0.01 | 96 | 1014.2 |
| 20260507043132 | 42 | 221 | 0.9 | 3.5 | 0.00 | 0.26 | 0.01 | 96 | 1014.0 |
| 20260507041552 | 42 | 224 | 1.7 | 4.3 | 0.00 | 0.26 | 0.01 | 96 | 1014.0 |
| 20260507040050 | 42 | 240 | 0.0 | 2.6 | 0.00 | 0.35 | 0.01 | 95 | 1014.0 |
| 20260507034557 | 43 | 240 | 1.7 | 4.3 | 0.00 | 0.35 | 0.01 | 96 | 1013.9 |
| 20260507033148 | 43 | 259 | 0.9 | 2.6 | 0.00 | 0.35 | 0.01 | 96 | 1014.0 |
| 20260507031544 | 43 | 259 | 0.9 | 2.6 | 0.00 | 0.35 | 0.01 | 96 | 1014.1 |
| 20260507030045 | 44 | 261 | 1.7 | 3.5 | 0.00 | 0.40 | 0.01 | 96 | 1014.0 |
| 20260507024555 | 44 | 259 | 1.7 | 3.5 | 0.00 | 0.40 | 0.01 | 96 | 1014.0 |
| 20260507023143 | 44 | 255 | 1.7 | 2.6 | 0.00 | 0.40 | 0.01 | 96 | 1013.9 |
| 20260507021547 | 44 | 255 | 1.7 | 2.6 | 0.00 | 0.40 | 0.01 | 96 | 1014.0 |
| 20260507020044 | 44 | 255 | 1.7 | 2.6 | 0.01 | 0.42 | 0.01 | 95 | 1014.0 |
| 20260507014543 | 44 | 255 | 0.9 | 2.6 | 0.01 | 0.42 | 0.01 | 95 | 1014.0 |
| 20260507013140 | 44 | 255 | 0.0 | 0.0 | 0.01 | 0.42 | 0.01 | 95 | 1013.9 |
| 20260507011542 | 44 | 254 | 0.0 | 3.5 | 0.01 | 0.42 | 0.01 | 95 | 1013.9 |
| 20260507010042 | 44 | 1 | 0.0 | 1.7 | 0.00 | 0.41 | 0.00 | 94 | 1014.2 |
| 20260507004535 | 44 | 8 | 1.7 | 7.0 | 0.00 | 0.41 | 0.00 | 94 | 1014.1 |
| 20260507003135 | 44 | 167 | 0.9 | 3.5 | 0.00 | 0.41 | 0.00 | 94 | 1013.9 |
| 20260507001602 | 44 | 184 | 0.0 | 5.2 | 0.00 | 0.41 | 0.00 | 94 | 1014.0 |
| 20260507000104 | 44 | 224 | 7.0 | 13.0 | 0.00 | 0.41 | 0.00 | 94 | 1013.9 |
| 20260506234602 | 44 | 215 | 2.6 | 4.3 | 0.00 | 0.41 | 0.00 | 95 | 1013.9 |
| 20260506233150 | 44 | 249 | 1.7 | 4.3 | 0.00 | 0.41 | 0.00 | 94 | 1013.8 |
| 20260506231548 | 44 | 229 | 1.7 | 3.5 | 0.00 | 0.41 | 0.00 | 94 | 1013.8 |
| 20260506230047 | 44 | 347 | 1.7 | 3.5 | 0.00 | 0.43 | 0.00 | 94 | 1013.8 |
| 20260506224549 | 44 | 351 | 0.0 | 3.5 | 0.00 | 0.43 | 0.00 | 94 | 1013.9 |
| 20260506223145 | 44 | 220 | 3.5 | 7.0 | 0.00 | 0.43 | 0.00 | 94 | 1013.8 |
| 20260506221548 | 45 | 191 | 1.7 | 5.2 | 0.00 | 0.43 | 0.00 | 93 | 1013.7 |
| 20260506220050 | 44 | 232 | 2.6 | 6.1 | 0.00 | 0.43 | 0.43 | 94 | 1013.9 |
| 20260506214544 | 44 | 205 | 2.6 | 5.2 | 0.00 | 0.43 | 0.43 | 94 | 1013.8 |